KIXA

Halifax-Northampton Regional Airport

Roanoke Rapids, North Carolina, USA
METAR KIXA 240755Z AUTO 01004KT 10SM OVC043 20/20 A3010 RMK AO2
Observed Flight Rules
May-24 @ 07:55 UTC (17 minutes ago) Visual Flight Rules
Wind Visibility Clouds
10° at 4 knots 10 miles
  • Overcast at 4,300' AGL
Temperatures Readings
Current 20°C / 68°F
Dewpoint 20°C / 68°F
Humidity 100%
Altimeter 30.1" Hg
Pressure 1019 hPa
Elevation 44
METAR KIXA 240755Z AUTO 01004KT 10SM OVC043 20/20 A3010 RMK AO2
Observed Flight Rules
May-24 @ 07:55 UTC
(17 minutes ago)
VFR
Wind Visibility
10° at 4 knots 10 miles
Clouds
  • Overcast at 4,300' AGL
Temperature Dewpoint
20°C / 68°F 20°C / 68°F
Humidity Altimeter Pressure
100% 30.1" Hg 1019 hPa